ROMMA est une association bénévole à but non lucratif. Votre soutien est indispensable : ADHERER à ROMMA ou FAIRE un DON

Die - (26, Drôme)

Diois (400 m)   Longitude: 5° 21' 55"E   Latitude: 44° 45' 16"N Station partenaire n°159
 

Détail journalier du     <<     >>

Température Precipitation Humidité Pression Vent Dir Rafale Dir. rafale Ensol.
Heure (°C) (mm) (%) (hPa) (km/h) (km/h) (min)
01:00 14.6095101103ONO0
02:00 14.7096101103ONO0
03:00 14.0096101003ONO0
04:00 13.709610092NNO5NO0
05:00 13.309610091NNO6NNO0
06:00 13.309610094NO10NNO0
07:00 12.609510092E8NO0
08:00 11.709610091O5NO0
09:00 12.609510092O11ONO0
10:00 15.608610092NO11NNO0
11:00 18.306910108ONO16ONO60
12:00 17.606510118NO21NNO0
13:00 17.107010119ONO23O0
14:00 17.206310115NO16NO0
15:00 17.406310114NNO18NO0
16:00 18.206010119NO23OSO0
17:00 17.706210126NO16NNO0
18:00 17.706210127NO27ONO0
19:00 17.406210135NO19ONO0
20:00 16.606810136NO21NO0
21:00 15.1070101510NO31O0
22:00 14.906410168NO35ONO0
23:00 14.705810177NO27NO0
minuit 14.105510178NO26NO0

Graphique du 02-10-2019

 

Serveur OMMA